createdAt,value
2023-04-17T00:00:06.815Z,135.42
2023-04-17T00:01:06.105Z,141.89
2023-04-17T00:02:06.148Z,139.48
2023-04-17T00:03:06.268Z,149.22
2023-04-17T00:04:06.296Z,141.39
2023-04-17T00:05:06.177Z,139.62
2023-04-17T00:06:06.307Z,138.26
2023-04-17T00:07:06.194Z,143.12
2023-04-17T00:08:06.204Z,142.64
2023-04-17T00:09:06.231Z,141.06
2023-04-17T00:10:06.309Z,139.09
2023-04-17T00:11:08.418Z,143.79
2023-04-17T00:12:06.263Z,145.69
2023-04-17T00:13:06.284Z,147.56
2023-04-17T00:14:06.230Z,145.83
2023-04-17T00:15:06.253Z,141.72
2023-04-17T00:16:06.318Z,135.01
2023-04-17T00:17:06.216Z,144.28
2023-04-17T00:18:06.273Z,148.53
2023-04-17T00:19:06.229Z,143.46
2023-04-17T00:20:06.235Z,146.51
2023-04-17T00:21:06.214Z,146.93
2023-04-17T00:22:06.211Z,141.60
2023-04-17T00:23:06.188Z,144.78
2023-04-17T00:24:06.219Z,145.20
2023-04-17T00:25:06.190Z,142.63
2023-04-17T00:26:06.191Z,142.49
2023-04-17T00:27:06.180Z,138.69
2023-04-17T00:28:06.215Z,144.77
2023-04-17T00:29:06.156Z,140.64
2023-04-17T00:30:06.160Z,140.65
2023-04-17T00:31:06.149Z,136.35
2023-04-17T00:32:06.222Z,138.44
2023-04-17T00:33:06.170Z,143.53
2023-04-17T00:34:06.176Z,132.62
2023-04-17T00:35:06.113Z,143.50
2023-04-17T00:36:06.120Z,136.61
2023-04-17T00:37:06.125Z,142.04
2023-04-17T00:38:06.089Z,142.19
2023-04-17T00:39:06.070Z,141.81
2023-04-17T00:40:06.080Z,137.53
2023-04-17T00:41:06.249Z,141.16
2023-04-17T00:42:06.047Z,139.23
2023-04-17T00:43:06.074Z,144.20
2023-04-17T00:44:06.051Z,141.30
2023-04-17T00:45:06.073Z,144.97
2023-04-17T00:46:06.130Z,136.18
2023-04-17T00:47:06.024Z,138.26
2023-04-17T00:48:06.086Z,137.38
2023-04-17T00:49:06.035Z,136.72
2023-04-17T00:50:06.015Z,144.14
2023-04-17T00:51:06.039Z,139.11
2023-04-17T00:52:06.018Z,137.09
2023-04-17T00:53:05.996Z,143.70
2023-04-17T00:54:05.997Z,142.49
2023-04-17T00:55:05.961Z,141.51
2023-04-17T00:56:06.034Z,142.90
2023-04-17T00:57:05.973Z,145.26
2023-04-17T00:58:05.958Z,141.76
2023-04-17T00:59:05.950Z,136.47
2023-04-17T01:00:06.012Z,139.98
2023-04-17T01:01:06.053Z,139.60
2023-04-17T01:02:06.037Z,139.58
2023-04-17T01:03:06.243Z,137.55
2023-04-17T01:04:06.060Z,137.79
2023-04-17T01:05:05.908Z,140.40
2023-04-17T01:06:05.928Z,142.95
2023-04-17T01:07:05.903Z,136.02
2023-04-17T01:08:05.894Z,141.58
2023-04-17T01:09:05.879Z,139.26
2023-04-17T01:10:05.865Z,133.40
2023-04-17T01:11:05.883Z,137.02
2023-04-17T01:12:05.868Z,132.02
2023-04-17T01:13:05.891Z,137.85
2023-04-17T01:14:05.892Z,137.91
2023-04-17T01:15:05.862Z,138.54
2023-04-17T01:16:05.854Z,140.14
2023-04-17T01:17:05.921Z,135.29
2023-04-17T01:18:05.961Z,134.68
2023-04-17T01:19:05.813Z,137.47
2023-04-17T01:20:05.845Z,140.31
2023-04-17T01:21:05.807Z,139.59
2023-04-17T01:22:05.793Z,133.11
2023-04-17T01:23:05.802Z,139.47
2023-04-17T01:24:05.805Z,138.15
2023-04-17T01:25:05.836Z,133.45
2023-04-17T01:26:05.769Z,130.25
2023-04-17T01:27:05.763Z,134.91
2023-04-17T01:28:05.737Z,135.85
2023-04-17T01:29:05.740Z,134.19
2023-04-17T01:30:05.795Z,135.23
2023-04-17T01:31:05.755Z,131.34
2023-04-17T01:32:05.725Z,130.54
2023-04-17T01:33:05.816Z,139.43
2023-04-17T01:34:05.711Z,131.69
2023-04-17T01:35:05.706Z,133.10
2023-04-17T01:36:05.714Z,124.32
2023-04-17T01:37:05.699Z,135.17
2023-04-17T01:38:05.663Z,130.72
2023-04-17T01:39:05.699Z,129.49
2023-04-17T01:40:05.809Z,125.71
2023-04-17T01:41:05.672Z,130.40
2023-04-17T01:42:05.646Z,125.46
2023-04-17T01:43:06.303Z,126.70
2023-04-17T01:44:05.636Z,125.91
2023-04-17T01:45:05.646Z,125.62
2023-04-17T01:46:05.735Z,124.00
2023-04-17T01:47:05.608Z,129.10
2023-04-17T01:48:05.634Z,126.55
2023-04-17T01:49:05.602Z,126.42
2023-04-17T01:50:05.615Z,129.31
2023-04-17T01:51:05.578Z,127.39
2023-04-17T01:52:05.577Z,125.63
2023-04-17T01:53:05.558Z,126.64
2023-04-17T01:54:05.540Z,122.44
2023-04-17T01:55:05.535Z,126.82
2023-04-17T01:56:05.569Z,125.20
2023-04-17T01:57:05.580Z,120.69
2023-04-17T01:58:05.537Z,119.99
2023-04-17T01:59:05.604Z,125.46
2023-04-17T02:00:05.588Z,125.89
2023-04-17T02:01:05.613Z,122.92
2023-04-17T02:02:05.791Z,124.10
2023-04-17T02:03:05.710Z,120.93
2023-04-17T02:04:05.760Z,122.07
2023-04-17T02:05:05.651Z,117.37
2023-04-17T02:06:05.686Z,122.14
2023-04-17T02:07:05.694Z,123.49
2023-04-17T02:08:05.721Z,124.73
2023-04-17T02:09:05.729Z,117.98
2023-04-17T02:10:05.740Z,123.81
2023-04-17T02:11:05.857Z,125.66
2023-04-17T02:12:05.767Z,119.49
2023-04-17T02:13:05.782Z,121.33
2023-04-17T02:14:05.794Z,115.78
2023-04-17T02:15:05.841Z,118.21
2023-04-17T02:16:05.884Z,121.18
2023-04-17T02:17:05.849Z,118.35
2023-04-17T02:18:05.956Z,119.38
2023-04-17T02:19:05.887Z,116.60
2023-04-17T02:20:05.885Z,118.05
2023-04-17T02:21:05.916Z,124.71
2023-04-17T02:22:05.947Z,118.25
2023-04-17T02:23:06.017Z,121.11
2023-04-17T02:24:05.992Z,122.85
2023-04-17T02:25:05.991Z,120.78
2023-04-17T02:26:05.991Z,124.94
2023-04-17T02:27:06.031Z,119.55
2023-04-17T02:28:06.067Z,122.31
2023-04-17T02:29:06.090Z,122.74
2023-04-17T02:30:06.067Z,117.19
2023-04-17T02:31:06.134Z,123.60
2023-04-17T02:32:06.111Z,119.41
2023-04-17T02:33:06.195Z,119.90
2023-04-17T02:34:06.156Z,121.66
2023-04-17T02:35:06.164Z,122.86
2023-04-17T02:36:06.193Z,121.48
2023-04-17T02:37:06.166Z,121.43
2023-04-17T02:38:06.249Z,119.32
2023-04-17T02:39:06.249Z,116.69
2023-04-17T02:40:06.221Z,124.44
2023-04-17T02:41:06.287Z,122.36
2023-04-17T02:42:06.254Z,120.54
2023-04-17T02:43:06.278Z,120.60
2023-04-17T02:44:06.316Z,119.39
2023-04-17T02:45:06.318Z,119.94
2023-04-17T02:46:06.329Z,118.74
2023-04-17T02:47:06.333Z,119.86
2023-04-17T02:48:06.443Z,124.95
2023-04-17T02:49:06.373Z,123.17
2023-04-17T02:50:06.414Z,125.02
2023-04-17T02:51:06.433Z,122.34
2023-04-17T02:52:06.434Z,122.25
2023-04-17T02:53:06.496Z,122.82
2023-04-17T02:54:06.480Z,120.49
2023-04-17T02:55:06.498Z,120.04
2023-04-17T02:56:06.547Z,118.79
2023-04-17T02:57:06.535Z,122.72
2023-04-17T02:58:06.542Z,125.49
2023-04-17T02:59:06.569Z,123.37
2023-04-17T03:00:06.547Z,125.38
2023-04-17T03:01:06.640Z,123.39
2023-04-17T03:02:06.650Z,126.43
2023-04-17T03:03:06.700Z,126.50
2023-04-17T03:04:06.710Z,121.74
2023-04-17T03:05:06.608Z,118.44
2023-04-17T03:06:06.634Z,117.71
2023-04-17T03:07:06.683Z,119.94
2023-04-17T03:08:06.680Z,119.64
2023-04-17T03:09:06.676Z,117.57
2023-04-17T03:10:06.695Z,113.69
2023-04-17T03:11:06.704Z,119.74
2023-04-17T03:12:06.759Z,125.95
2023-04-17T03:13:06.742Z,125.84
2023-04-17T03:14:06.749Z,122.14
2023-04-17T03:15:08.770Z,125.53
2023-04-17T03:16:06.863Z,126.35
2023-04-17T03:17:06.816Z,123.25
2023-04-17T03:18:06.869Z,124.54
2023-04-17T03:19:06.857Z,122.11
2023-04-17T03:20:06.922Z,121.92
2023-04-17T03:21:06.942Z,115.77
2023-04-17T03:22:06.971Z,126.21
2023-04-17T03:23:06.979Z,120.25
2023-04-17T03:24:06.997Z,124.54
2023-04-17T03:25:07.041Z,121.93
2023-04-17T03:26:07.034Z,121.67
2023-04-17T03:27:07.073Z,122.53
2023-04-17T03:28:07.072Z,117.92
2023-04-17T03:29:07.106Z,124.27
2023-04-17T03:30:07.190Z,120.18
2023-04-17T03:31:07.127Z,124.82
2023-04-17T03:32:07.185Z,113.41
2023-04-17T03:33:07.170Z,124.20
2023-04-17T03:34:07.195Z,124.69
2023-04-17T03:35:07.196Z,121.45
2023-04-17T03:36:07.211Z,124.65
2023-04-17T03:37:07.247Z,128.31
2023-04-17T03:38:07.233Z,124.44
2023-04-17T03:39:07.236Z,126.68
2023-04-17T03:40:07.251Z,124.71
2023-04-17T03:41:07.281Z,122.03
2023-04-17T03:42:07.286Z,125.82
2023-04-17T03:43:07.283Z,123.82
2023-04-17T03:44:07.331Z,126.27
2023-04-17T03:45:07.355Z,124.72
2023-04-17T03:46:07.455Z,121.68
2023-04-17T03:47:07.379Z,120.75
2023-04-17T03:48:07.414Z,127.98
2023-04-17T03:49:07.369Z,117.27
2023-04-17T03:50:07.382Z,116.88
2023-04-17T03:51:07.409Z,123.70
2023-04-17T03:52:07.437Z,117.39
2023-04-17T03:53:07.431Z,120.10
2023-04-17T03:54:07.445Z,117.66
2023-04-17T03:55:07.475Z,121.31
2023-04-17T03:56:07.430Z,119.19
2023-04-17T03:57:07.477Z,119.75
2023-04-17T03:58:07.469Z,122.50
2023-04-17T03:59:07.450Z,121.09
2023-04-17T04:00:07.487Z,121.19
2023-04-17T04:01:07.481Z,122.56
2023-04-17T04:02:07.553Z,120.36
2023-04-17T04:03:07.695Z,120.76
2023-04-17T04:04:07.690Z,119.92
2023-04-17T04:05:07.622Z,117.25
2023-04-17T04:06:07.876Z,115.93
2023-04-17T04:07:07.539Z,114.40
2023-04-17T04:08:07.557Z,118.44
2023-04-17T04:09:07.569Z,116.02
2023-04-17T04:10:07.603Z,117.14
2023-04-17T04:11:07.623Z,116.57
2023-04-17T04:12:07.630Z,115.68
2023-04-17T04:13:07.658Z,119.41
2023-04-17T04:14:07.626Z,115.44
2023-04-17T04:15:07.662Z,116.52
2023-04-17T04:16:07.830Z,112.55
2023-04-17T04:17:07.688Z,114.37
2023-04-17T04:18:07.745Z,111.84
2023-04-17T04:19:07.690Z,109.04
2023-04-17T04:20:07.679Z,112.40
2023-04-17T04:21:07.916Z,115.50
2023-04-17T04:22:07.673Z,119.41
2023-04-17T04:23:07.684Z,117.08
2023-04-17T04:24:07.711Z,112.56
2023-04-17T04:25:07.674Z,114.79
2023-04-17T04:26:07.742Z,117.64
2023-04-17T04:27:07.734Z,115.77
2023-04-17T04:28:07.726Z,117.12
2023-04-17T04:29:07.752Z,118.20
2023-04-17T04:30:07.758Z,117.37
2023-04-17T04:31:07.832Z,115.53
2023-04-17T04:32:07.801Z,117.49
2023-04-17T04:33:07.880Z,114.81
2023-04-17T04:34:07.868Z,117.52
2023-04-17T04:35:07.864Z,113.07
2023-04-17T04:36:07.893Z,115.87
2023-04-17T04:37:07.841Z,118.87
2023-04-17T04:38:09.023Z,114.46
2023-04-17T04:39:07.841Z,116.81
2023-04-17T04:40:07.847Z,119.40
2023-04-17T04:41:07.872Z,116.83
2023-04-17T04:42:07.836Z,115.10
2023-04-17T04:43:07.850Z,118.30
2023-04-17T04:44:07.814Z,117.39
2023-04-17T04:45:07.867Z,115.08
2023-04-17T04:46:07.812Z,113.77
2023-04-17T04:47:07.863Z,113.75
2023-04-17T04:48:07.872Z,118.73
2023-04-17T04:49:07.771Z,122.22
2023-04-17T04:50:07.787Z,117.81
2023-04-17T04:51:07.794Z,120.01
2023-04-17T04:52:07.772Z,119.57
2023-04-17T04:53:07.789Z,121.65
2023-04-17T04:54:07.760Z,123.84
2023-04-17T04:55:07.767Z,124.31
2023-04-17T04:56:07.738Z,123.78
2023-04-17T04:57:07.737Z,128.79
2023-04-17T04:58:07.716Z,131.25
2023-04-17T04:59:07.720Z,125.95
2023-04-17T05:00:07.711Z,130.03
2023-04-17T05:01:07.808Z,130.76
2023-04-17T05:02:07.752Z,127.54
2023-04-17T05:03:07.829Z,129.19
2023-04-17T05:04:07.812Z,127.50
2023-04-17T05:05:07.728Z,129.86
2023-04-17T05:06:07.674Z,128.72
2023-04-17T05:07:07.660Z,122.99
2023-04-17T05:08:07.687Z,126.26
2023-04-17T05:09:07.674Z,125.02
2023-04-17T05:10:07.643Z,125.48
2023-04-17T05:11:07.659Z,124.80
2023-04-17T05:12:07.609Z,123.58
2023-04-17T05:13:07.650Z,123.10
2023-04-17T05:14:07.640Z,123.70
2023-04-17T05:15:07.590Z,122.08
2023-04-17T05:16:07.959Z,123.79
2023-04-17T05:17:07.619Z,121.77
2023-04-17T05:18:07.900Z,125.42
2023-04-17T05:19:07.588Z,126.93
2023-04-17T05:20:07.613Z,125.03
2023-04-17T05:21:07.594Z,126.77
2023-04-17T05:22:07.645Z,124.18
2023-04-17T05:23:07.575Z,127.11
2023-04-17T05:24:07.556Z,125.83
2023-04-17T05:25:07.568Z,127.99
2023-04-17T05:26:07.527Z,131.87
2023-04-17T05:27:07.528Z,135.10
2023-04-17T05:28:07.496Z,134.16
2023-04-17T05:29:07.516Z,132.18
2023-04-17T05:30:07.505Z,136.70
2023-04-17T05:31:07.561Z,136.42
2023-04-17T05:32:07.700Z,146.99
2023-04-17T05:33:07.553Z,159.09
2023-04-17T05:34:08.417Z,201.42
2023-04-17T05:35:07.492Z,237.02
2023-04-17T05:36:07.543Z,214.24
2023-04-17T05:37:07.469Z,211.08
2023-04-17T05:38:08.004Z,213.47
2023-04-17T05:39:07.448Z,224.47
2023-04-17T05:40:07.425Z,229.06
2023-04-17T05:41:07.545Z,236.72
2023-04-17T05:42:08.436Z,244.45
2023-04-17T05:43:07.902Z,243.84
2023-04-17T05:44:07.401Z,250.00
2023-04-17T05:45:07.433Z,247.41
2023-04-17T05:46:07.438Z,248.60
2023-04-17T05:47:07.369Z,244.40
2023-04-17T05:48:07.489Z,248.95
2023-04-17T05:49:07.413Z,241.78
2023-04-17T05:50:07.405Z,247.53
2023-04-17T05:51:07.361Z,244.41
2023-04-17T05:52:07.352Z,237.99
2023-04-17T05:53:07.341Z,230.16
2023-04-17T05:54:07.525Z,232.30
2023-04-17T05:55:07.357Z,230.09
2023-04-17T05:56:07.384Z,230.91
2023-04-17T05:57:07.300Z,226.19
2023-04-17T05:58:20.407Z,219.35
2023-04-17T05:59:08.292Z,219.80
2023-04-17T06:00:07.381Z,220.23
2023-04-17T06:01:07.450Z,219.18
2023-04-17T06:02:07.422Z,219.33
2023-04-17T06:03:07.428Z,220.62
2023-04-17T06:04:07.369Z,218.37
2023-04-17T06:05:07.486Z,218.17
2023-04-17T06:06:07.237Z,218.72
2023-04-17T06:07:07.231Z,219.94
2023-04-17T06:08:07.221Z,216.79
2023-04-17T06:09:07.237Z,222.42
2023-04-17T06:10:07.537Z,217.96
2023-04-17T06:11:07.244Z,221.69
2023-04-17T06:12:07.208Z,222.08
2023-04-17T06:13:07.269Z,221.88
2023-04-17T06:14:07.213Z,220.21
2023-04-17T06:15:08.554Z,212.70
2023-04-17T06:16:07.187Z,217.65
2023-04-17T06:17:07.289Z,214.43
2023-04-17T06:18:07.242Z,213.69
2023-04-17T06:19:07.171Z,217.26
2023-04-17T06:20:07.394Z,219.50
2023-04-17T06:21:07.156Z,214.97
2023-04-17T06:22:07.156Z,214.11
2023-04-17T06:23:07.147Z,214.84
2023-04-17T06:24:07.418Z,214.35
2023-04-17T06:25:07.142Z,219.97
2023-04-17T06:26:07.235Z,212.35
2023-04-17T06:27:07.184Z,214.39
2023-04-17T06:28:07.112Z,218.43
2023-04-17T06:29:07.119Z,217.07
2023-04-17T06:30:07.196Z,216.49
2023-04-17T06:31:07.148Z,214.04
2023-04-17T06:32:07.079Z,221.45
2023-04-17T06:33:07.112Z,214.15
2023-04-17T06:34:07.487Z,219.41
2023-04-17T06:35:07.110Z,236.45
2023-04-17T06:36:07.045Z,221.77
2023-04-17T06:37:07.077Z,223.76
2023-04-17T06:38:07.082Z,220.16
2023-04-17T06:39:07.361Z,245.64
2023-04-17T06:40:07.340Z,236.28
2023-04-17T06:41:07.348Z,234.80
2023-04-17T06:42:07.533Z,240.92
2023-04-17T06:43:07.338Z,250.00
2023-04-17T06:44:07.410Z,231.08
2023-04-17T06:45:07.431Z,220.22
2023-04-17T06:46:07.537Z,229.58
2023-04-17T06:47:07.559Z,239.77
2023-04-17T06:48:07.642Z,243.56
2023-04-17T06:49:07.681Z,236.91
2023-04-17T06:50:07.715Z,237.48
2023-04-17T06:51:07.789Z,236.66
2023-04-17T06:52:07.920Z,235.92
2023-04-17T06:53:07.781Z,226.35
2023-04-17T06:54:07.968Z,228.86
2023-04-17T06:55:07.837Z,233.68
2023-04-17T06:56:07.890Z,236.97
2023-04-17T06:57:07.940Z,236.16
2023-04-17T06:58:07.951Z,233.05
2023-04-17T06:59:07.975Z,232.60
2023-04-17T07:00:08.604Z,233.04
2023-04-17T07:01:08.179Z,229.60
2023-04-17T07:02:08.359Z,235.54
2023-04-17T07:03:08.204Z,227.61
2023-04-17T07:04:08.266Z,240.32
2023-04-17T07:05:08.199Z,235.18
2023-04-17T07:06:08.389Z,233.60
2023-04-17T07:07:08.297Z,231.86
2023-04-17T07:08:08.341Z,241.52
2023-04-17T07:09:08.398Z,233.88
2023-04-17T07:10:08.453Z,235.40
2023-04-17T07:11:08.510Z,234.79
2023-04-17T07:12:08.527Z,229.00
2023-04-17T07:13:08.738Z,231.72
2023-04-17T07:14:09.528Z,231.72
2023-04-17T07:15:08.782Z,237.82
2023-04-17T07:16:08.810Z,234.41
2023-04-17T07:17:08.913Z,233.70
2023-04-17T07:18:08.869Z,231.43
2023-04-17T07:19:08.908Z,234.43
2023-04-17T07:20:08.902Z,232.13
2023-04-17T07:21:08.966Z,252.26
2023-04-17T07:22:09.000Z,243.74
2023-04-17T07:23:09.003Z,247.13
2023-04-17T07:24:09.027Z,244.68
2023-04-17T07:25:09.026Z,244.90
2023-04-17T07:26:09.024Z,240.52
2023-04-17T07:27:09.012Z,233.69
2023-04-17T07:28:09.026Z,234.01
2023-04-17T07:29:09.652Z,243.40
2023-04-17T07:30:09.088Z,250.00
2023-04-17T07:31:09.084Z,214.19
2023-04-17T07:32:09.086Z,210.65
2023-04-17T07:33:09.235Z,220.73
2023-04-17T07:34:09.167Z,231.68
2023-04-17T07:35:09.172Z,248.12
2023-04-17T07:36:09.170Z,252.12
2023-04-17T07:37:09.174Z,244.80
2023-04-17T07:38:09.370Z,244.01
2023-04-17T07:39:09.279Z,237.23
2023-04-17T07:40:09.268Z,249.44
2023-04-17T07:41:09.309Z,243.16
2023-04-17T07:42:09.323Z,239.59
2023-04-17T07:43:09.989Z,233.23
2023-04-17T07:44:09.521Z,225.99
2023-04-17T07:45:09.402Z,231.05
2023-04-17T07:46:09.404Z,233.05
2023-04-17T07:47:09.495Z,225.90
2023-04-17T07:48:09.465Z,232.21
2023-04-17T07:49:12.065Z,232.21
2023-04-17T07:50:09.473Z,230.21
2023-04-17T07:51:09.402Z,218.68
2023-04-17T07:52:09.414Z,219.81
2023-04-17T07:53:09.411Z,219.32
2023-04-17T07:54:09.407Z,219.86
2023-04-17T07:55:09.374Z,217.10
2023-04-17T07:56:09.935Z,213.33
2023-04-17T07:57:09.374Z,213.58
2023-04-17T07:58:09.378Z,213.85
2023-04-17T07:59:10.342Z,214.68
2023-04-17T08:00:09.345Z,218.28
2023-04-17T08:01:09.330Z,218.62
2023-04-17T08:02:10.093Z,218.28
2023-04-17T08:03:09.586Z,220.83
2023-04-17T08:04:09.583Z,218.61
2023-04-17T08:05:09.375Z,219.85
2023-04-17T08:06:09.348Z,222.38
2023-04-17T08:07:09.507Z,227.21
2023-04-17T08:08:09.548Z,224.83
2023-04-17T08:09:09.420Z,236.14
2023-04-17T08:10:09.356Z,233.28
2023-04-17T08:11:09.336Z,232.62
2023-04-17T08:12:09.552Z,231.73
2023-04-17T08:13:09.430Z,229.46
2023-04-17T08:14:09.472Z,230.34
2023-04-17T08:15:09.452Z,228.69
2023-04-17T08:16:09.508Z,233.45
2023-04-17T08:17:09.666Z,229.36
2023-04-17T08:18:09.686Z,232.28
2023-04-17T08:19:10.136Z,230.35
2023-04-17T08:20:09.658Z,228.53
2023-04-17T08:21:09.735Z,228.16
2023-04-17T08:22:09.747Z,233.52
2023-04-17T08:23:09.751Z,226.67
2023-04-17T08:24:09.763Z,229.66
2023-04-17T08:25:09.794Z,233.68
2023-04-17T08:26:10.547Z,248.02
2023-04-17T08:27:09.984Z,259.74
2023-04-17T08:28:09.962Z,250.00
2023-04-17T08:29:10.037Z,233.02
2023-04-17T08:30:12.422Z,232.36
2023-04-17T08:31:10.085Z,229.71
2023-04-17T08:32:13.905Z,220.88
2023-04-17T08:33:10.036Z,221.02
2023-04-17T08:34:14.535Z,221.00
2023-04-17T08:35:11.472Z,221.29
2023-04-17T08:36:10.288Z,224.44
2023-04-17T08:37:10.492Z,225.87
2023-04-17T08:38:09.985Z,222.30
2023-04-17T08:39:10.465Z,223.94
2023-04-17T08:40:10.514Z,231.87
2023-04-17T08:41:10.057Z,248.78
2023-04-17T08:42:13.334Z,244.48
2023-04-17T08:43:11.045Z,242.33
2023-04-17T08:44:10.074Z,238.30
2023-04-17T08:45:10.140Z,214.27
2023-04-17T08:46:10.291Z,191.79
2023-04-17T08:47:10.555Z,183.98
2023-04-17T08:48:10.329Z,183.07
2023-04-17T08:49:10.856Z,172.58
2023-04-17T08:50:11.004Z,186.00
2023-04-17T08:51:10.494Z,183.46
2023-04-17T08:52:10.997Z,170.59
2023-04-17T08:53:10.649Z,167.97
2023-04-17T08:54:10.652Z,169.97
2023-04-17T08:55:10.704Z,170.07
2023-04-17T08:56:10.772Z,170.30
2023-04-17T08:57:11.114Z,175.51
2023-04-17T08:58:10.869Z,177.36
2023-04-17T08:59:11.063Z,174.36
2023-04-17T09:00:10.976Z,181.22
2023-04-17T09:01:11.087Z,181.29
2023-04-17T09:02:11.629Z,170.87
2023-04-17T09:03:11.607Z,174.30
2023-04-17T09:04:11.375Z,178.57
2023-04-17T09:05:11.284Z,178.18
2023-04-17T09:06:11.468Z,176.09
2023-04-17T09:07:11.370Z,185.11
2023-04-17T09:08:11.423Z,183.51
2023-04-17T09:09:11.666Z,182.22
2023-04-17T09:10:11.581Z,176.67
2023-04-17T09:11:11.579Z,178.41
2023-04-17T09:12:11.641Z,176.45
2023-04-17T09:13:11.722Z,175.20
2023-04-17T09:14:11.917Z,183.54
2023-04-17T09:15:11.824Z,183.45
2023-04-17T09:16:11.957Z,182.99
2023-04-17T09:17:11.957Z,194.88
2023-04-17T09:18:12.127Z,197.50
2023-04-17T09:19:12.316Z,224.25
2023-04-17T09:20:12.268Z,236.95
2023-04-17T09:21:12.172Z,244.31
2023-04-17T09:22:12.239Z,222.69
2023-04-17T09:23:12.363Z,214.92
2023-04-17T09:24:12.351Z,201.76
2023-04-17T09:25:12.456Z,230.12
2023-04-17T09:26:12.519Z,206.38
2023-04-17T09:27:12.702Z,185.67
2023-04-17T09:28:12.594Z,190.68
2023-04-17T09:29:12.760Z,178.74
2023-04-17T09:30:12.830Z,181.53
2023-04-17T09:31:12.836Z,198.05
2023-04-17T09:32:12.900Z,189.79
2023-04-17T09:33:13.510Z,194.97
2023-04-17T09:34:12.971Z,212.19
2023-04-17T09:35:13.027Z,230.35
2023-04-17T09:36:13.064Z,232.89
2023-04-17T09:37:13.147Z,234.28
2023-04-17T09:38:13.173Z,221.05
2023-04-17T09:39:13.435Z,206.66
2023-04-17T09:40:13.526Z,205.24
2023-04-17T09:41:13.351Z,200.08
2023-04-17T09:42:13.441Z,181.87
2023-04-17T09:43:13.418Z,159.26
2023-04-17T09:44:13.557Z,153.87
2023-04-17T09:45:14.038Z,149.92
2023-04-17T09:46:13.556Z,138.56
2023-04-17T09:47:13.601Z,131.34
2023-04-17T09:48:13.684Z,127.20
2023-04-17T09:49:13.723Z,140.52
2023-04-17T09:50:13.844Z,147.29
2023-04-17T09:51:13.842Z,143.10
2023-04-17T09:52:13.899Z,152.28
2023-04-17T09:53:13.967Z,154.36
2023-04-17T09:54:14.267Z,148.76
2023-04-17T09:55:14.057Z,153.97
2023-04-17T09:56:14.135Z,147.99
2023-04-17T09:57:14.192Z,151.53
2023-04-17T09:58:14.254Z,160.03
2023-04-17T09:59:14.290Z,165.84
2023-04-17T10:00:14.487Z,167.74
2023-04-17T10:01:14.468Z,168.48
2023-04-17T10:02:14.571Z,165.81
2023-04-17T10:03:14.753Z,158.83
2023-04-17T10:04:14.849Z,159.55
2023-04-17T10:05:14.681Z,164.75
2023-04-17T10:06:14.678Z,182.57
2023-04-17T10:07:14.741Z,172.40
2023-04-17T10:08:14.897Z,168.05
2023-04-17T10:09:14.864Z,167.03
2023-04-17T10:10:15.028Z,161.91
2023-04-17T10:11:14.999Z,149.10
2023-04-17T10:12:16.010Z,150.40
2023-04-17T10:13:15.550Z,147.44
2023-04-17T10:14:15.277Z,143.52
2023-04-17T10:15:15.285Z,138.48
2023-04-17T10:16:15.359Z,143.73
2023-04-17T10:17:15.312Z,143.40
2023-04-17T10:18:15.467Z,148.26
2023-04-17T10:19:15.408Z,147.98
2023-04-17T10:20:15.487Z,143.21
2023-04-17T10:21:15.543Z,120.52
2023-04-17T10:22:15.617Z,107.96
2023-04-17T10:23:15.995Z,107.56
2023-04-17T10:24:15.864Z,91.94
2023-04-17T10:25:15.772Z,95.62
2023-04-17T10:26:17.054Z,100.03
2023-04-17T10:27:15.818Z,103.87
2023-04-17T10:28:16.523Z,98.27
2023-04-17T10:29:15.962Z,114.31
2023-04-17T10:30:16.008Z,117.71
2023-04-17T10:31:16.018Z,119.95
2023-04-17T10:32:16.158Z,117.88
2023-04-17T10:33:16.621Z,132.78
2023-04-17T10:34:16.162Z,130.64
2023-04-17T10:35:16.328Z,131.57
2023-04-17T10:36:16.280Z,131.23
2023-04-17T10:37:17.005Z,132.82
2023-04-17T10:38:16.373Z,140.54
2023-04-17T10:39:16.402Z,141.47
2023-04-17T10:40:16.479Z,141.77
2023-04-17T10:41:16.560Z,143.49
2023-04-17T10:42:16.527Z,140.51
2023-04-17T10:43:17.029Z,137.16
2023-04-17T10:44:16.607Z,145.59
2023-04-17T10:45:16.883Z,152.22
2023-04-17T10:46:17.059Z,151.38
2023-04-17T10:47:16.770Z,154.13
2023-04-17T10:48:16.825Z,152.69
2023-04-17T10:49:16.843Z,154.79
2023-04-17T10:50:16.887Z,152.44
2023-04-17T10:51:17.042Z,152.09
2023-04-17T10:52:17.056Z,155.20
2023-04-17T10:53:17.519Z,153.38
2023-04-17T10:54:17.099Z,156.83
2023-04-17T10:55:17.203Z,159.61
2023-04-17T10:56:17.151Z,157.08
2023-04-17T10:57:17.185Z,150.55
2023-04-17T10:58:17.260Z,158.83
2023-04-17T10:59:17.310Z,150.42
2023-04-17T11:00:17.328Z,145.36
2023-04-17T11:01:17.630Z,139.23
2023-04-17T11:02:17.464Z,146.88
2023-04-17T11:03:17.576Z,139.02
2023-04-17T11:04:17.597Z,146.73
2023-04-17T11:05:17.537Z,150.20
2023-04-17T11:06:17.594Z,147.01
2023-04-17T11:07:17.609Z,152.97
2023-04-17T11:08:17.777Z,154.63
2023-04-17T11:09:17.832Z,159.69
2023-04-17T11:10:17.812Z,161.89
2023-04-17T11:11:20.995Z,148.48
2023-04-17T11:12:18.829Z,146.35
2023-04-17T11:13:17.845Z,128.63
2023-04-17T11:14:17.890Z,119.63
2023-04-17T11:15:17.818Z,138.57
2023-04-17T11:16:17.804Z,144.03
2023-04-17T11:17:18.019Z,149.50
2023-04-17T11:18:17.913Z,197.56
2023-04-17T11:19:17.830Z,172.50
2023-04-17T11:20:17.783Z,156.28
2023-04-17T11:21:17.817Z,152.45
2023-04-17T11:22:17.790Z,151.03
2023-04-17T11:23:17.775Z,160.90
2023-04-17T11:24:17.799Z,159.78
2023-04-17T11:25:17.824Z,162.71
2023-04-17T11:26:17.912Z,165.54
2023-04-17T11:27:17.873Z,163.60
2023-04-17T11:28:17.949Z,162.04
2023-04-17T11:29:17.976Z,156.52
2023-04-17T11:30:18.024Z,152.17
2023-04-17T11:31:19.441Z,154.73
2023-04-17T11:32:18.018Z,152.84
2023-04-17T11:33:18.004Z,141.12
2023-04-17T11:34:18.011Z,135.07
2023-04-17T11:35:18.010Z,132.26
2023-04-17T11:36:17.993Z,108.59
2023-04-17T11:37:18.015Z,105.33
2023-04-17T11:38:18.029Z,109.59
2023-04-17T11:39:17.960Z,108.96
2023-04-17T11:40:17.958Z,93.14
2023-04-17T11:41:17.957Z,77.98
2023-04-17T11:42:17.950Z,92.27
2023-04-17T11:43:17.999Z,58.24
2023-04-17T11:44:17.963Z,55.85
2023-04-17T11:45:17.934Z,32.81
2023-04-17T11:46:17.937Z,33.57
2023-04-17T11:47:17.911Z,26.44
2023-04-17T11:48:18.524Z,36.76
2023-04-17T11:49:17.934Z,30.81
2023-04-17T11:50:17.930Z,37.83
2023-04-17T11:51:17.894Z,28.97
2023-04-17T11:52:18.073Z,28.65
2023-04-17T11:53:17.874Z,37.57
2023-04-17T11:54:17.872Z,25.00
2023-04-17T11:55:17.884Z,25.65
2023-04-17T11:56:17.860Z,31.69
2023-04-17T11:57:17.862Z,32.78
2023-04-17T11:58:17.861Z,29.59
2023-04-17T11:59:17.884Z,41.80
2023-04-17T12:00:17.829Z,50.57
2023-04-17T12:01:17.845Z,32.70
2023-04-17T12:02:17.955Z,27.33
2023-04-17T12:03:18.128Z,35.91
2023-04-17T12:04:18.186Z,38.86
2023-04-17T12:05:17.983Z,25.36
2023-04-17T12:06:17.800Z,29.14
2023-04-17T12:07:17.839Z,38.03
2023-04-17T12:08:17.830Z,51.90
2023-04-17T12:09:17.842Z,50.91
2023-04-17T12:10:17.876Z,52.88
2023-04-17T12:11:17.833Z,59.86
2023-04-17T12:12:17.878Z,37.70
2023-04-17T12:13:18.092Z,57.52
2023-04-17T12:14:17.989Z,51.40
2023-04-17T12:15:18.020Z,56.73
2023-04-17T12:16:18.096Z,52.00
2023-04-17T12:17:18.151Z,69.90
2023-04-17T12:18:18.184Z,72.47
2023-04-17T12:19:18.256Z,49.09
2023-04-17T12:20:18.302Z,49.69
2023-04-17T12:21:18.374Z,47.84
2023-04-17T12:22:18.430Z,53.66
2023-04-17T12:23:18.509Z,50.35
2023-04-17T12:24:18.568Z,49.09
2023-04-17T12:25:18.618Z,42.69
2023-04-17T12:26:18.636Z,57.22
2023-04-17T12:27:18.710Z,42.99
2023-04-17T12:28:18.774Z,40.90
2023-04-17T12:29:24.063Z,73.39
2023-04-17T12:30:19.818Z,74.08